createdAt,value
2018-08-13T00:01:27.521Z,100155.45
2018-08-13T00:03:55.749Z,100158.03
2018-08-13T00:06:23.993Z,100156.73
2018-08-13T00:08:52.266Z,100152.33
2018-08-13T00:11:20.517Z,100153.31
2018-08-13T00:13:48.776Z,100153.42
2018-08-13T00:16:16.994Z,100151.19
2018-08-13T00:18:45.249Z,100143.62
2018-08-13T00:21:13.505Z,100147.94
2018-08-13T00:23:41.721Z,100147.80
2018-08-13T00:26:09.963Z,100140.39
2018-08-13T00:28:38.193Z,100142.17
2018-08-13T00:31:06.550Z,100141.99
2018-08-13T00:33:34.793Z,100136.72
2018-08-13T00:36:03.041Z,100129.64
2018-08-13T00:38:31.306Z,100139.44
2018-08-13T00:41:00.989Z,100134.91
2018-08-13T00:43:29.234Z,100132.28
2018-08-13T00:45:57.463Z,100136.23
2018-08-13T00:48:25.725Z,100140.04
2018-08-13T00:50:53.944Z,100140.77
2018-08-13T00:53:22.221Z,100122.41
2018-08-13T00:55:50.465Z,100122.21
2018-08-13T00:58:18.745Z,100124.26
2018-08-13T01:00:46.981Z,100115.37
2018-08-13T01:03:15.241Z,100111.56
2018-08-13T01:05:43.481Z,100109.52
2018-08-13T01:08:11.710Z,100093.02
2018-08-13T01:10:39.926Z,100098.19
2018-08-13T01:13:08.189Z,100099.14
2018-08-13T01:15:36.443Z,100086.75
2018-08-13T01:18:05.581Z,100089.27
2018-08-13T01:20:33.821Z,100087.67
2018-08-13T01:23:02.045Z,100085.52
2018-08-13T01:25:30.285Z,100077.05
2018-08-13T01:27:58.493Z,100080.73
2018-08-13T01:30:26.729Z,100074.02
2018-08-13T01:32:54.973Z,100079.41
2018-08-13T01:35:23.189Z,100073.89
2018-08-13T01:37:51.421Z,100069.17
2018-08-13T01:40:19.636Z,100066.41
2018-08-13T01:42:47.900Z,100067.31
2018-08-13T01:45:16.149Z,100067.18
2018-08-13T01:47:44.393Z,100062.06
2018-08-13T01:50:13.268Z,100059.88
2018-08-13T01:52:41.549Z,100054.58
2018-08-13T01:55:10.675Z,100051.55
2018-08-13T01:57:38.945Z,100052.81
2018-08-13T02:00:10.429Z,100051.01
2018-08-13T02:02:38.681Z,100046.41
2018-08-13T02:05:07.025Z,100047.27
2018-08-13T02:07:35.401Z,100041.30
2018-08-13T02:10:03.643Z,100036.89
2018-08-13T02:12:31.925Z,100035.50
2018-08-13T02:15:00.155Z,100029.37
2018-08-13T02:17:28.417Z,100012.29
2018-08-13T02:19:56.662Z,100009.48
2018-08-13T02:22:24.937Z,100000.28
2018-08-13T02:24:53.179Z,100002.31
2018-08-13T02:27:21.457Z,99989.77
2018-08-13T02:29:49.689Z,99989.00
2018-08-13T02:32:17.932Z,99989.77
2018-08-13T02:34:46.143Z,99990.80
2018-08-13T02:37:14.383Z,99990.20
2018-08-13T02:39:42.639Z,99983.30
2018-08-13T02:42:10.896Z,99986.31
2018-08-13T02:44:39.149Z,99979.16
2018-08-13T02:47:07.401Z,99979.56
2018-08-13T02:49:35.629Z,99974.52
2018-08-13T02:52:04.271Z,99968.16
2018-08-13T02:54:32.508Z,99968.18
2018-08-13T02:57:00.759Z,99965.28
2018-08-13T02:59:28.993Z,99956.83
2018-08-13T03:01:57.230Z,99952.92
2018-08-13T03:04:25.485Z,99951.80
2018-08-13T03:06:57.921Z,99952.02
2018-08-13T03:09:26.142Z,99941.29
2018-08-13T03:11:54.361Z,99948.02
2018-08-13T03:14:22.605Z,99940.27
2018-08-13T03:16:50.861Z,99942.98
2018-08-13T03:19:19.082Z,99941.52
2018-08-13T03:21:47.355Z,99932.48
2018-08-13T03:24:15.590Z,99938.12
2018-08-13T03:26:43.875Z,99949.75
2018-08-13T03:29:12.078Z,99977.87
2018-08-13T03:31:40.333Z,99986.05
2018-08-13T03:34:08.545Z,99988.34
2018-08-13T03:36:37.253Z,99994.84
2018-08-13T03:39:08.721Z,100013.98
2018-08-13T03:41:36.973Z,100020.77
2018-08-13T03:44:05.237Z,100029.54
2018-08-13T03:46:33.497Z,100024.42
2018-08-13T03:49:01.721Z,100008.66
2018-08-13T03:51:30.010Z,99992.51
2018-08-13T03:53:58.241Z,100006.23
2018-08-13T03:56:26.469Z,100006.87
2018-08-13T03:58:54.733Z,100000.20
2018-08-13T04:01:22.985Z,99984.30
2018-08-13T04:03:51.253Z,99993.92
2018-08-13T04:06:19.473Z,99998.36
2018-08-13T04:08:47.713Z,99995.33
2018-08-13T04:11:15.977Z,100008.84
2018-08-13T04:13:44.217Z,100020.66
2018-08-13T04:16:12.481Z,100032.09
2018-08-13T04:18:40.730Z,100025.31
2018-08-13T04:21:08.980Z,100023.00
2018-08-13T04:23:37.221Z,100019.68
2018-08-13T04:26:07.772Z,100040.35
2018-08-13T04:28:35.997Z,100049.09
2018-08-13T04:31:04.225Z,100064.87
2018-08-13T04:33:32.457Z,100055.72
2018-08-13T04:36:00.686Z,100077.39
2018-08-13T04:38:28.912Z,100095.72
2018-08-13T04:40:57.153Z,100125.74
2018-08-13T04:43:25.362Z,100140.22
2018-08-13T04:45:53.581Z,100130.52
2018-08-13T04:48:21.813Z,100127.15
2018-08-13T04:50:50.053Z,100122.37
2018-08-13T04:53:18.265Z,100132.04
2018-08-13T04:55:46.666Z,100135.29
2018-08-13T04:58:14.915Z,100135.97
2018-08-13T05:00:43.133Z,100137.08
2018-08-13T05:03:11.385Z,100156.54
2018-08-13T05:05:39.601Z,100147.77
2018-08-13T05:08:07.977Z,100140.77
2018-08-13T05:10:36.190Z,100143.81
2018-08-13T05:13:04.476Z,100132.04
2018-08-13T05:15:32.710Z,100135.05
2018-08-13T05:18:00.953Z,100135.50
2018-08-13T05:20:29.177Z,100132.73
2018-08-13T05:22:57.443Z,100143.09
2018-08-13T05:25:25.674Z,100145.28
2018-08-13T05:27:53.917Z,100168.75
2018-08-13T05:30:22.296Z,100196.02
2018-08-13T05:32:50.505Z,100199.75
2018-08-13T05:35:18.741Z,100202.45
2018-08-13T05:37:46.997Z,100221.42
2018-08-13T05:40:15.340Z,100184.94
2018-08-13T05:42:43.564Z,100169.34
2018-08-13T05:45:11.784Z,100173.09
2018-08-13T05:47:40.275Z,100170.05
2018-08-13T05:50:09.896Z,100149.94
2018-08-13T05:52:38.170Z,100149.36
2018-08-13T05:55:06.600Z,100116.23
2018-08-13T05:57:34.837Z,100095.11
2018-08-13T06:00:03.185Z,100107.84
2018-08-13T06:02:31.434Z,100086.39
2018-08-13T06:04:59.665Z,100080.21
2018-08-13T06:07:27.890Z,100092.02
2018-08-13T06:09:56.101Z,100110.61
2018-08-13T06:12:24.350Z,100122.05
2018-08-13T06:14:52.577Z,100086.42
2018-08-13T06:17:20.859Z,100079.20
2018-08-13T06:19:49.093Z,100119.34
2018-08-13T06:22:17.342Z,100114.52
2018-08-13T06:24:45.609Z,100086.63
2018-08-13T06:27:13.910Z,100076.24
2018-08-13T06:29:42.152Z,100074.02
2018-08-13T06:32:10.501Z,100068.31
2018-08-13T06:34:39.676Z,100093.20
2018-08-13T06:37:09.913Z,100113.04
2018-08-13T06:39:38.184Z,100104.61
2018-08-13T06:42:06.564Z,100125.20
2018-08-13T06:44:35.073Z,100138.75
2018-08-13T06:47:03.450Z,100139.86
2018-08-13T06:49:31.798Z,100140.41
2018-08-13T06:52:00.090Z,100144.72
2018-08-13T06:54:28.343Z,100140.48
2018-08-13T06:56:56.609Z,100141.56
2018-08-13T06:59:24.965Z,100154.95
2018-08-13T07:01:53.181Z,100170.95
2018-08-13T07:04:21.418Z,100175.96
2018-08-13T07:06:49.668Z,100188.59
2018-08-13T07:09:17.906Z,100179.19
2018-08-13T07:11:46.265Z,100181.92
2018-08-13T07:14:14.541Z,100176.20
2018-08-13T07:16:42.789Z,100175.02
2018-08-13T07:19:11.045Z,100171.93
2018-08-13T07:21:39.293Z,100175.08
2018-08-13T07:24:07.637Z,100175.89
2018-08-13T07:26:35.927Z,100178.44
2018-08-13T07:29:04.197Z,100164.50
2018-08-13T07:31:32.450Z,100156.58
2018-08-13T07:34:00.707Z,100147.84
2018-08-13T07:36:28.961Z,100148.91
2018-08-13T07:38:57.211Z,100145.36
2018-08-13T07:41:25.517Z,100132.85
2018-08-13T07:43:53.773Z,100129.96
2018-08-13T07:46:22.020Z,100131.87
2018-08-13T07:48:50.253Z,100132.06
2018-08-13T07:51:18.517Z,100122.04
2018-08-13T07:53:49.646Z,100115.55
2018-08-13T07:56:17.889Z,100106.02
2018-08-13T07:58:46.209Z,100115.18
2018-08-13T08:01:14.474Z,100115.81
2018-08-13T08:03:42.832Z,100118.66
2018-08-13T08:06:11.085Z,100113.04
2018-08-13T08:08:39.357Z,100107.67
2018-08-13T08:11:07.889Z,100117.91
2018-08-13T08:13:36.208Z,100134.28
2018-08-13T08:16:04.506Z,100132.66
2018-08-13T08:18:32.774Z,100123.41
2018-08-13T08:21:01.074Z,100141.06
2018-08-13T08:23:29.372Z,100150.88
2018-08-13T08:25:57.644Z,100154.48
2018-08-13T08:28:25.945Z,100142.31
2018-08-13T08:30:54.197Z,100149.98
2018-08-13T08:33:22.473Z,100148.97
2018-08-13T08:35:50.733Z,100156.00
2018-08-13T08:38:19.005Z,100156.19
2018-08-13T08:40:47.284Z,100155.42
2018-08-13T08:43:15.587Z,100161.28
2018-08-13T08:45:43.858Z,100156.63
2018-08-13T08:48:12.146Z,100164.55
2018-08-13T08:50:40.397Z,100159.95
2018-08-13T08:53:08.642Z,100155.83
2018-08-13T08:55:36.966Z,100155.42
2018-08-13T08:58:05.253Z,100158.69
2018-08-13T09:00:33.593Z,100163.92
2018-08-13T09:03:01.837Z,100163.61
2018-08-13T09:05:30.086Z,100165.48
2018-08-13T09:07:58.365Z,100163.30
2018-08-13T09:10:26.641Z,100166.91
2018-08-13T09:12:54.902Z,100156.25
2018-08-13T09:15:23.215Z,100154.78
2018-08-13T09:18:02.785Z,100145.87
2018-08-13T09:21:44.110Z,100148.51
2018-08-13T09:24:23.606Z,100138.08
2018-08-13T09:28:06.793Z,100143.92
2018-08-13T09:30:46.318Z,100135.39
2018-08-13T09:33:25.802Z,100135.12
2018-08-13T09:35:54.058Z,100124.20
2018-08-13T09:38:22.349Z,100130.62
2018-08-13T09:40:50.629Z,100125.55
2018-08-13T09:43:18.908Z,100125.63
2018-08-13T09:45:47.174Z,100126.61
2018-08-13T09:48:15.459Z,100126.30
2018-08-13T09:50:43.705Z,100120.06
2018-08-13T09:53:11.949Z,100123.92
2018-08-13T09:55:40.213Z,100125.04
2018-08-13T09:58:08.493Z,100128.94
2018-08-13T10:00:42.165Z,100126.77
2018-08-13T10:03:10.447Z,100129.25
2018-08-13T10:05:38.766Z,100114.38
2018-08-13T10:08:07.064Z,100115.28
2018-08-13T10:10:35.323Z,100110.12
2018-08-13T10:13:03.649Z,100119.08
2018-08-13T10:15:31.905Z,100119.73
2018-08-13T10:18:00.251Z,100111.81
2018-08-13T10:20:28.545Z,100106.40
2018-08-13T10:22:56.789Z,100105.83
2018-08-13T10:25:25.026Z,100116.34
2018-08-13T10:27:53.265Z,100110.35
2018-08-13T10:30:21.493Z,100100.42
2018-08-13T10:32:49.741Z,100102.05
2018-08-13T10:35:18.049Z,100103.70
2018-08-13T10:37:46.298Z,100098.31
2018-08-13T10:40:16.866Z,100091.91
2018-08-13T10:42:45.537Z,100099.89
2018-08-13T10:45:14.099Z,100096.94
2018-08-13T10:47:42.354Z,100098.98
2018-08-13T10:50:12.266Z,100089.97
2018-08-13T10:52:40.869Z,100082.86
2018-08-13T10:55:10.182Z,100086.62
2018-08-13T10:57:38.454Z,100081.34
2018-08-13T11:00:08.721Z,100086.77
2018-08-13T11:02:37.038Z,100088.95
2018-08-13T11:05:06.837Z,100085.79
2018-08-13T11:07:35.109Z,100089.99
2018-08-13T11:10:03.432Z,100075.55
2018-08-13T11:12:31.665Z,100085.38
2018-08-13T11:14:59.914Z,100077.09
2018-08-13T11:17:28.177Z,100076.98
2018-08-13T11:19:57.425Z,100074.05
2018-08-13T11:22:25.670Z,100064.88
2018-08-13T11:24:53.953Z,100059.97
2018-08-13T11:27:22.229Z,100049.05
2018-08-13T11:29:50.490Z,100050.46
2018-08-13T11:32:19.234Z,100033.08
2018-08-13T11:34:47.574Z,100024.98
2018-08-13T11:37:15.745Z,100017.58
2018-08-13T11:39:43.973Z,100018.12
2018-08-13T11:42:12.258Z,100013.64
2018-08-13T11:44:40.494Z,100011.06
2018-08-13T11:47:08.745Z,99998.08
2018-08-13T11:49:37.013Z,99993.59
2018-08-13T11:52:05.701Z,99997.05
2018-08-13T11:54:33.981Z,100004.27
2018-08-13T11:57:02.357Z,100004.03
2018-08-13T11:59:30.614Z,100000.17
2018-08-13T12:01:58.910Z,100001.84
2018-08-13T12:04:27.094Z,99999.12
2018-08-13T12:06:55.330Z,99996.36
2018-08-13T12:09:23.576Z,99996.64
2018-08-13T12:11:51.807Z,99997.86
2018-08-13T12:14:20.078Z,99995.96
2018-08-13T12:16:48.317Z,99994.77
2018-08-13T12:19:16.617Z,99987.56
2018-08-13T12:21:44.851Z,99982.12
2018-08-13T12:24:13.117Z,99980.77
2018-08-13T12:26:41.346Z,99983.06
2018-08-13T12:29:09.585Z,99980.13
2018-08-13T12:31:37.813Z,99974.88
2018-08-13T12:34:06.171Z,99978.28
2018-08-13T12:36:34.463Z,99973.25
2018-08-13T12:39:02.766Z,99981.69
2018-08-13T12:41:31.238Z,99981.41
2018-08-13T12:43:59.573Z,99972.80
2018-08-13T12:46:27.857Z,99969.08
2018-08-13T12:48:56.098Z,99975.58
2018-08-13T12:51:24.321Z,99979.91
2018-08-13T12:53:52.569Z,99973.70
2018-08-13T12:56:20.853Z,99977.80
2018-08-13T12:58:49.166Z,99991.08
2018-08-13T13:01:18.437Z,99982.91
2018-08-13T13:03:46.718Z,99998.30
2018-08-13T13:06:14.939Z,99996.86
2018-08-13T13:08:43.189Z,99996.60
2018-08-13T13:11:13.518Z,100012.05
2018-08-13T13:13:41.811Z,100009.42
2018-08-13T13:16:10.161Z,100008.36
2018-08-13T13:18:38.779Z,100002.73
2018-08-13T13:21:07.025Z,100010.42
2018-08-13T13:23:38.610Z,100007.47
2018-08-13T13:26:06.894Z,100022.88
2018-08-13T13:28:35.124Z,100021.48
2018-08-13T13:31:03.409Z,100031.23
2018-08-13T13:33:31.806Z,100037.23
2018-08-13T13:36:00.070Z,100034.78
2018-08-13T13:38:28.322Z,100040.36
2018-08-13T13:40:56.553Z,100033.55
2018-08-13T13:43:24.833Z,100035.54
2018-08-13T13:45:53.085Z,100035.81
2018-08-13T13:48:21.325Z,100037.67
2018-08-13T13:50:49.566Z,100030.55
2018-08-13T13:53:17.942Z,100020.48
2018-08-13T13:55:46.186Z,100022.20
2018-08-13T13:58:14.459Z,100029.19
2018-08-13T14:00:42.714Z,100035.41
2018-08-13T14:03:10.958Z,100028.64
2018-08-13T14:05:39.194Z,100026.52
2018-08-13T14:08:07.466Z,100035.81
2018-08-13T14:10:36.014Z,100026.08
2018-08-13T14:13:04.272Z,100016.04
2018-08-13T14:15:32.545Z,100025.41
2018-08-13T14:18:00.797Z,100022.38
2018-08-13T14:20:29.087Z,100021.64
2018-08-13T14:22:57.377Z,100022.72
2018-08-13T14:25:25.626Z,100026.53
2018-08-13T14:27:53.870Z,100033.89
2018-08-13T14:30:29.057Z,100029.60
2018-08-13T14:32:57.326Z,100028.29
2018-08-13T14:35:25.965Z,100026.80
2018-08-13T14:37:54.200Z,100029.66
2018-08-13T14:40:22.484Z,100024.94
2018-08-13T14:42:50.728Z,100030.72
2018-08-13T14:45:19.561Z,100021.62
2018-08-13T14:47:49.552Z,100018.96
2018-08-13T14:50:17.926Z,100016.83
2018-08-13T14:52:47.261Z,100010.75
2018-08-13T14:55:17.625Z,100011.05
2018-08-13T14:57:45.907Z,100013.09
2018-08-13T15:00:24.748Z,100014.42
2018-08-13T15:02:53.909Z,100012.22
2018-08-13T15:05:22.197Z,100015.61
2018-08-13T15:07:50.473Z,100010.28
2018-08-13T15:10:20.430Z,100016.43
2018-08-13T15:12:48.766Z,100010.67
2018-08-13T15:15:17.008Z,100012.25
2018-08-13T15:17:45.290Z,100032.72
2018-08-13T15:20:15.567Z,100019.53
2018-08-13T15:22:43.827Z,100022.96
2018-08-13T15:25:12.114Z,100032.61
2018-08-13T15:27:40.464Z,100016.22
2018-08-13T15:30:11.958Z,100011.58
2018-08-13T15:32:40.358Z,100010.18
2018-08-13T15:35:08.947Z,100022.52
2018-08-13T15:37:37.309Z,100021.38
2018-08-13T15:40:05.869Z,100032.47
2018-08-13T15:42:34.647Z,100043.60
2018-08-13T15:45:02.992Z,100048.27
2018-08-13T15:47:31.234Z,100053.82
2018-08-13T15:49:59.475Z,100045.55
2018-08-13T15:52:27.762Z,100048.46
2018-08-13T15:54:56.006Z,100054.12
2018-08-13T15:57:24.222Z,100056.59
2018-08-13T15:59:52.473Z,100054.78
2018-08-13T16:02:20.744Z,100059.02
2018-08-13T16:04:49.001Z,100059.11
2018-08-13T16:07:17.217Z,100059.02
2018-08-13T16:09:45.455Z,100056.53
2018-08-13T16:12:13.727Z,100053.83
2018-08-13T16:14:41.954Z,100054.02
2018-08-13T16:17:10.185Z,100054.23
2018-08-13T16:19:38.420Z,100050.72
2018-08-13T16:22:06.714Z,100047.31
2018-08-13T16:24:35.565Z,100048.84
2018-08-13T16:27:03.837Z,100046.78
2018-08-13T16:29:32.103Z,100050.31
2018-08-13T16:32:00.557Z,100054.71
2018-08-13T16:34:28.785Z,100056.06
2018-08-13T16:36:57.018Z,100060.66
2018-08-13T16:39:25.275Z,100064.10
2018-08-13T16:41:53.542Z,100059.58
2018-08-13T16:44:21.781Z,100062.20
2018-08-13T16:46:50.054Z,100057.27
2018-08-13T16:49:18.301Z,100049.76
2018-08-13T16:51:46.569Z,100061.02
2018-08-13T16:54:14.941Z,100061.69
2018-08-13T16:56:43.226Z,100062.59
2018-08-13T16:59:11.457Z,100066.64
2018-08-13T17:01:39.714Z,100063.63
2018-08-13T17:04:08.050Z,100064.02
2018-08-13T17:06:36.356Z,100066.27
2018-08-13T17:09:06.566Z,100068.18
2018-08-13T17:11:34.829Z,100073.56
2018-08-13T17:14:04.572Z,100068.92
2018-08-13T17:16:32.803Z,100064.30
2018-08-13T17:19:01.086Z,100064.47
2018-08-13T17:21:29.369Z,100062.48
2018-08-13T17:23:57.621Z,100059.17
2018-08-13T17:26:25.938Z,100059.94
2018-08-13T17:28:54.201Z,100061.46
2018-08-13T17:31:22.465Z,100071.94
2018-08-13T17:33:50.731Z,100067.24
2018-08-13T17:36:18.985Z,100077.25
2018-08-13T17:38:47.265Z,100066.84
2018-08-13T17:41:15.521Z,100070.83
2018-08-13T17:43:43.826Z,100071.02
2018-08-13T17:46:12.057Z,100075.92
2018-08-13T17:48:40.278Z,100085.34
2018-08-13T17:51:08.565Z,100084.32
2018-08-13T17:53:36.806Z,100079.33
2018-08-13T17:56:05.077Z,100087.66
2018-08-13T17:58:33.306Z,100096.25
2018-08-13T18:01:01.526Z,100089.30
2018-08-13T18:03:29.761Z,100092.63
2018-08-13T18:05:58.047Z,100092.83
2018-08-13T18:08:26.309Z,100094.45
2018-08-13T18:10:54.546Z,100089.32
2018-08-13T18:13:22.817Z,100092.61
2018-08-13T18:15:51.049Z,100096.98
2018-08-13T18:18:19.294Z,100092.44
2018-08-13T18:20:49.309Z,100100.27
2018-08-13T18:23:17.548Z,100093.70
2018-08-13T18:25:46.214Z,100090.92
2018-08-13T18:28:14.465Z,100104.94
2018-08-13T18:30:42.765Z,100102.75
2018-08-13T18:33:11.158Z,100115.09
2018-08-13T18:35:39.407Z,100117.12
2018-08-13T18:38:07.798Z,100114.19
2018-08-13T18:40:36.062Z,100118.45
2018-08-13T18:43:04.360Z,100119.55
2018-08-13T18:45:32.617Z,100121.46
2018-08-13T18:48:01.083Z,100123.75
2018-08-13T18:50:29.347Z,100130.13
2018-08-13T18:52:57.575Z,100133.80
2018-08-13T18:55:26.205Z,100140.88
2018-08-13T18:57:54.905Z,100138.30
2018-08-13T19:00:28.765Z,100148.95
2018-08-13T19:02:57.934Z,100155.78
2018-08-13T19:05:26.194Z,100153.31
2018-08-13T19:07:54.406Z,100156.20
2018-08-13T19:10:22.837Z,100157.05
2018-08-13T19:12:51.097Z,100153.00
2018-08-13T19:15:21.532Z,100163.72
2018-08-13T19:17:50.078Z,100169.55
2018-08-13T19:20:18.369Z,100171.66
2018-08-13T19:22:46.699Z,100169.19
2018-08-13T19:25:16.635Z,100181.41
2018-08-13T19:27:45.326Z,100178.08
2018-08-13T19:30:15.370Z,100189.34
2018-08-13T19:32:44.369Z,100191.62
2018-08-13T19:35:12.626Z,100190.86
2018-08-13T19:37:40.926Z,100186.59
2018-08-13T19:40:12.625Z,100195.55
2018-08-13T19:42:40.875Z,100195.34
2018-08-13T19:45:10.388Z,100204.20
2018-08-13T19:47:38.633Z,100215.56
2018-08-13T19:50:08.665Z,100213.28
2018-08-13T19:52:37.083Z,100219.39
2018-08-13T19:55:05.557Z,100218.63
2018-08-13T19:57:33.831Z,100224.71
2018-08-13T20:00:02.234Z,100226.28
2018-08-13T20:02:30.472Z,100231.94
2018-08-13T20:04:59.161Z,100231.20
2018-08-13T20:07:27.433Z,100237.57
2018-08-13T20:09:55.678Z,100228.97
2018-08-13T20:12:24.017Z,100224.09
2018-08-13T20:14:52.241Z,100234.61
2018-08-13T20:17:21.679Z,100237.65
2018-08-13T20:19:49.974Z,100236.25
2018-08-13T20:22:18.198Z,100241.30
2018-08-13T20:24:46.542Z,100245.58
2018-08-13T20:27:14.749Z,100242.41
2018-08-13T20:29:43.093Z,100242.55
2018-08-13T20:32:11.433Z,100241.41
2018-08-13T20:34:39.701Z,100243.86
2018-08-13T20:37:08.044Z,100246.25
2018-08-13T20:39:36.206Z,100247.35
2018-08-13T20:42:04.521Z,100254.16
2018-08-13T20:44:32.776Z,100245.94
2018-08-13T20:47:01.061Z,100243.41
2018-08-13T20:49:29.490Z,100240.16
2018-08-13T20:51:57.729Z,100247.10
2018-08-13T20:54:26.817Z,100250.38
2018-08-13T20:56:55.072Z,100254.14
2018-08-13T20:59:23.329Z,100261.02
2018-08-13T21:01:51.574Z,100257.03
2018-08-13T21:04:19.810Z,100261.66
2018-08-13T21:06:48.077Z,100267.83
2018-08-13T21:09:16.406Z,100269.75
2018-08-13T21:11:44.632Z,100262.70
2018-08-13T21:14:12.917Z,100264.63
2018-08-13T21:16:41.193Z,100267.09
2018-08-13T21:19:09.482Z,100270.01
2018-08-13T21:21:37.695Z,100268.89
2018-08-13T21:24:06.170Z,100273.44
2018-08-13T21:26:34.482Z,100272.45
2018-08-13T21:29:02.973Z,100276.07
2018-08-13T21:31:31.233Z,100278.73
2018-08-13T21:33:59.457Z,100280.64
2018-08-13T21:36:27.735Z,100286.64
2018-08-13T21:38:56.837Z,100295.22
2018-08-13T21:41:26.446Z,100294.94
2018-08-13T21:43:54.698Z,100296.53
2018-08-13T21:46:23.008Z,100302.71
2018-08-13T21:48:51.298Z,100304.67
2018-08-13T21:51:19.713Z,100304.67
2018-08-13T21:53:47.949Z,100312.84
2018-08-13T21:56:16.205Z,100311.52
2018-08-13T21:58:44.490Z,100308.57
2018-08-13T22:01:18.277Z,100307.43
2018-08-13T22:03:46.518Z,100313.42
2018-08-13T22:06:14.770Z,100315.60
2018-08-13T22:08:43.026Z,100308.61
2018-08-13T22:11:11.646Z,100310.34
2018-08-13T22:13:39.930Z,100313.78
2018-08-13T22:16:08.227Z,100315.88
2018-08-13T22:18:36.473Z,100314.24
2018-08-13T22:21:04.745Z,100315.95
2018-08-13T22:23:33.125Z,100320.55
2018-08-13T22:26:01.381Z,100317.80
2018-08-13T22:28:29.621Z,100319.45
2018-08-13T22:30:57.915Z,100323.02
2018-08-13T22:33:26.140Z,100327.21
2018-08-13T22:35:54.397Z,100333.44
2018-08-13T22:38:22.638Z,100338.19
2018-08-13T22:40:50.877Z,100341.44
2018-08-13T22:43:19.141Z,100350.11
2018-08-13T22:45:47.380Z,100345.44
2018-08-13T22:48:15.625Z,100349.94
2018-08-13T22:50:43.841Z,100351.50
2018-08-13T22:53:12.065Z,100348.84
2018-08-13T22:55:40.313Z,100358.92
2018-08-13T22:58:08.741Z,100360.84
2018-08-13T23:00:36.951Z,100365.39
2018-08-13T23:03:05.254Z,100368.48
2018-08-13T23:05:33.513Z,100376.89
2018-08-13T23:08:01.780Z,100368.17
2018-08-13T23:10:30.021Z,100372.25
2018-08-13T23:12:58.282Z,100375.55
2018-08-13T23:15:26.578Z,100373.25
2018-08-13T23:17:55.014Z,100375.42
2018-08-13T23:20:25.091Z,100370.33
2018-08-13T23:22:58.281Z,100370.91
2018-08-13T23:25:27.101Z,100377.80
2018-08-13T23:27:56.545Z,100378.08
2018-08-13T23:30:24.833Z,100379.47
2018-08-13T23:32:54.206Z,100383.69
2018-08-13T23:35:23.205Z,100389.70
2018-08-13T23:37:51.757Z,100380.40
2018-08-13T23:40:19.973Z,100392.85
2018-08-13T23:42:48.373Z,100389.11
2018-08-13T23:45:20.822Z,100394.40
2018-08-13T23:47:49.137Z,100389.40
2018-08-13T23:50:20.717Z,100384.68
2018-08-13T23:52:49.918Z,100383.49
2018-08-13T23:55:32.141Z,100381.02
2018-08-13T23:58:00.754Z,100386.77
